createdAt,value
2018-11-20T00:00:51.425Z,15.67
2018-11-20T00:03:49.499Z,15.43
2018-11-20T00:06:39.639Z,15.15
2018-11-20T00:09:26.133Z,17.07
2018-11-20T00:12:19.142Z,16.05
2018-11-20T00:15:15.117Z,13.38
2018-11-20T00:17:58.505Z,15.18
2018-11-20T00:20:44.198Z,15.25
2018-11-20T00:23:33.823Z,16.05
2018-11-20T00:26:21.021Z,16.75
2018-11-20T00:29:01.895Z,15.13
2018-11-20T00:31:51.994Z,15.57
2018-11-20T00:34:41.700Z,16.75
2018-11-20T00:37:17.407Z,16.47
2018-11-20T00:40:07.527Z,16.27
2018-11-20T00:43:04.023Z,16.93
2018-11-20T00:46:00.133Z,17.77
2018-11-20T00:48:59.424Z,15.93
2018-11-20T00:52:01.683Z,16.17
2018-11-20T00:55:03.952Z,16.87
2018-11-20T00:57:49.890Z,16.87
2018-11-20T01:00:27.637Z,17.10
2018-11-20T01:03:20.534Z,15.27
2018-11-20T01:06:06.204Z,16.63
2018-11-20T01:08:59.569Z,17.33
2018-11-20T01:11:55.708Z,16.37
2018-11-20T01:14:42.406Z,16.77
2018-11-20T01:17:38.758Z,15.70
2018-11-20T01:20:41.180Z,17.97
2018-11-20T01:23:26.917Z,16.50
2018-11-20T01:26:26.026Z,15.73
2018-11-20T01:29:28.237Z,15.80
2018-11-20T01:32:15.389Z,15.83
2018-11-20T01:35:05.272Z,17.13
2018-11-20T01:37:41.042Z,17.20
2018-11-20T01:40:15.870Z,17.30
2018-11-20T01:42:56.088Z,16.87
2018-11-20T01:45:40.244Z,16.30
2018-11-20T01:48:36.671Z,15.70
2018-11-20T01:51:33.939Z,16.57
2018-11-20T01:54:36.067Z,16.83
2018-11-20T01:57:26.183Z,16.02
2018-11-20T02:00:19.110Z,17.00
2018-11-20T02:03:08.970Z,16.17
2018-11-20T02:05:55.116Z,16.75
2018-11-20T02:08:48.060Z,17.12
2018-11-20T02:11:34.776Z,17.43
2018-11-20T02:14:22.442Z,16.77
2018-11-20T02:17:13.783Z,16.97
2018-11-20T02:19:59.790Z,16.50
2018-11-20T02:22:45.413Z,17.05
2018-11-20T02:25:32.588Z,16.57
2018-11-20T02:28:22.411Z,17.07
2018-11-20T02:31:08.480Z,17.55
2018-11-20T02:34:01.424Z,16.35
2018-11-20T02:36:51.252Z,15.78
2018-11-20T02:39:53.442Z,15.18
2018-11-20T02:42:46.436Z,16.82
2018-11-20T02:45:32.197Z,16.95
2018-11-20T02:48:20.279Z,17.17
2018-11-20T02:51:02.216Z,18.00
2018-11-20T02:53:55.173Z,16.80
2018-11-20T02:56:38.245Z,18.10
2018-11-20T02:59:24.189Z,17.23
2018-11-20T03:02:14.115Z,16.90
2018-11-20T03:05:13.304Z,16.87
2018-11-20T03:08:09.243Z,17.73
2018-11-20T03:10:55.171Z,16.17
2018-11-20T03:13:57.551Z,16.63
2018-11-20T03:16:43.781Z,15.70
2018-11-20T03:19:39.874Z,14.53
2018-11-20T03:22:30.088Z,16.47
2018-11-20T03:25:10.864Z,15.73
2018-11-20T03:28:00.887Z,15.10
2018-11-20T03:30:52.594Z,15.67
2018-11-20T03:33:54.756Z,16.30
2018-11-20T03:36:38.350Z,15.10
2018-11-20T03:39:26.250Z,16.63
2018-11-20T03:42:19.364Z,15.80
2018-11-20T03:45:06.574Z,17.70
2018-11-20T03:48:03.159Z,16.23
2018-11-20T03:50:48.948Z,16.33
2018-11-20T03:53:48.101Z,15.17
2018-11-20T03:56:34.194Z,16.87
2018-11-20T03:59:19.857Z,16.40
2018-11-20T04:02:19.542Z,15.17
2018-11-20T04:05:05.230Z,15.17
2018-11-20T04:08:01.163Z,15.27
2018-11-20T04:10:44.262Z,14.77
2018-11-20T04:13:30.112Z,14.80
2018-11-20T04:16:32.349Z,14.93
2018-11-20T04:19:34.703Z,14.50
2018-11-20T04:22:20.598Z,15.23
2018-11-20T04:25:16.702Z,13.30
2018-11-20T04:28:03.948Z,14.83
2018-11-20T04:31:07.438Z,14.43
2018-11-20T04:33:54.167Z,15.63
2018-11-20T04:39:49.926Z,16.23
2018-11-20T04:42:29.688Z,15.67
2018-11-20T04:45:16.884Z,16.30
2018-11-20T04:48:02.543Z,14.83
2018-11-20T04:51:05.049Z,15.30
2018-11-20T04:53:49.717Z,16.73
2018-11-20T04:56:42.645Z,15.93
2018-11-20T04:59:29.837Z,16.70
2018-11-20T05:02:28.939Z,16.67
2018-11-20T05:05:25.257Z,16.10
2018-11-20T05:08:21.379Z,15.13
2018-11-20T05:11:07.047Z,16.73
2018-11-20T05:14:04.509Z,16.33
2018-11-20T05:16:50.177Z,14.83
2018-11-20T05:19:36.001Z,14.73
2018-11-20T05:22:23.206Z,15.20
2018-11-20T05:25:05.573Z,14.63
2018-11-20T05:27:55.643Z,13.67
2018-11-20T05:30:38.859Z,13.43
2018-11-20T05:33:24.938Z,14.17
2018-11-20T05:36:09.943Z,14.00
2018-11-20T05:39:09.214Z,14.17
2018-11-20T05:42:02.075Z,13.17
2018-11-20T05:44:52.170Z,12.83
2018-11-20T05:47:34.923Z,13.80
2018-11-20T05:50:21.009Z,14.57
2018-11-20T05:52:56.904Z,13.80
2018-11-20T05:55:53.623Z,13.37
2018-11-20T05:58:52.725Z,14.37
2018-11-20T06:01:38.379Z,13.63
2018-11-20T06:04:24.258Z,13.30
2018-11-20T06:07:07.143Z,13.40
2018-11-20T06:10:09.351Z,12.53
2018-11-20T06:13:08.330Z,14.13
2018-11-20T06:16:01.442Z,14.63
2018-11-20T06:19:06.674Z,13.13
2018-11-20T06:22:06.035Z,13.70
2018-11-20T06:24:51.653Z,13.97
2018-11-20T06:27:37.482Z,14.10
2018-11-20T06:30:23.696Z,14.30
2018-11-20T06:33:06.354Z,15.60
2018-11-20T06:36:01.033Z,14.20
2018-11-20T06:39:06.442Z,12.67
2018-11-20T06:42:05.740Z,14.00
2018-11-20T06:44:51.667Z,14.53
2018-11-20T06:47:37.736Z,13.17
2018-11-20T06:50:24.666Z,14.83
2018-11-20T06:53:10.406Z,13.63
2018-11-20T06:55:56.002Z,15.00
2018-11-20T06:58:46.052Z,14.57
2018-11-20T07:01:23.714Z,13.97
2018-11-20T07:04:25.854Z,12.87
2018-11-20T07:07:11.690Z,13.53
2018-11-20T07:09:57.348Z,13.43
2018-11-20T07:12:41.130Z,14.07
2018-11-20T07:15:26.775Z,13.07
2018-11-20T07:18:12.380Z,14.87
2018-11-20T07:21:05.477Z,13.40
2018-11-20T07:23:56.920Z,13.23
2018-11-20T07:26:54.160Z,13.40
2018-11-20T07:29:40.262Z,12.93
2018-11-20T07:32:26.074Z,13.83
2018-11-20T07:35:10.199Z,13.87
2018-11-20T07:38:00.163Z,13.00
2018-11-20T07:40:44.880Z,13.37
2018-11-20T07:43:27.069Z,13.73
2018-11-20T07:46:14.272Z,14.93
2018-11-20T07:49:01.488Z,13.73
2018-11-20T07:51:50.933Z,13.63
2018-11-20T07:54:38.143Z,11.63
2018-11-20T07:57:17.126Z,12.10
2018-11-20T08:00:01.878Z,12.30
2018-11-20T08:02:50.192Z,12.40
2018-11-20T08:05:47.423Z,12.73
2018-11-20T08:08:52.989Z,11.73
2018-11-20T08:11:46.165Z,11.20
2018-11-20T08:14:31.825Z,11.13
2018-11-20T08:17:09.943Z,10.10
2018-11-20T08:19:51.068Z,9.80
2018-11-20T08:22:40.995Z,11.60
2018-11-20T08:25:31.188Z,11.53
2018-11-20T08:28:27.302Z,10.27
2018-11-20T08:31:17.462Z,9.97
2018-11-20T08:34:03.515Z,10.53
2018-11-20T08:36:53.408Z,10.47
2018-11-20T08:39:58.754Z,10.60
2018-11-20T08:42:43.118Z,10.97
2018-11-20T08:45:42.441Z,10.53
2018-11-20T08:48:35.745Z,11.97
2018-11-20T08:51:22.946Z,11.20
2018-11-20T08:54:02.389Z,10.97
2018-11-20T08:56:58.512Z,11.83
2018-11-20T08:59:48.476Z,11.50
2018-11-20T09:02:41.651Z,11.10
2018-11-20T09:05:37.523Z,11.47
2018-11-20T09:08:23.493Z,11.87
2018-11-20T09:11:06.711Z,12.13
2018-11-20T09:13:59.543Z,12.60
2018-11-20T09:16:49.645Z,11.87
2018-11-20T09:19:35.643Z,12.10
2018-11-20T09:22:35.738Z,12.90
2018-11-20T09:25:41.537Z,12.20
2018-11-20T09:28:43.930Z,12.50
2018-11-20T09:31:46.477Z,12.13
2018-11-20T09:34:32.473Z,11.23
2018-11-20T09:37:19.687Z,11.37
2018-11-20T09:40:24.301Z,12.70
2018-11-20T09:43:15.945Z,11.97
2018-11-20T09:46:12.905Z,11.67
2018-11-20T09:49:15.191Z,11.40
2018-11-20T09:52:11.411Z,11.50
2018-11-20T09:55:07.312Z,11.53
2018-11-20T09:57:53.148Z,11.63
2018-11-20T10:00:38.835Z,10.57
2018-11-20T10:03:16.144Z,12.07
2018-11-20T10:06:15.775Z,11.77
2018-11-20T10:09:03.153Z,10.77
2018-11-20T10:11:59.212Z,10.43
2018-11-20T10:14:52.210Z,9.97
2018-11-20T10:17:48.206Z,10.17
2018-11-20T10:20:41.152Z,9.80
2018-11-20T10:23:28.323Z,10.07
2018-11-20T10:26:14.173Z,9.67
2018-11-20T10:29:16.140Z,11.10
2018-11-20T10:32:03.983Z,10.37
2018-11-20T10:34:56.573Z,9.67
2018-11-20T10:37:30.496Z,9.47
2018-11-20T10:40:17.849Z,9.00
2018-11-20T10:43:11.075Z,8.33
2018-11-20T10:46:09.562Z,8.23
2018-11-20T10:48:55.141Z,8.07
2018-11-20T10:51:27.878Z,8.30
2018-11-20T10:54:09.684Z,9.03
2018-11-20T10:56:55.648Z,8.40
2018-11-20T11:00:01.014Z,9.30
2018-11-20T11:02:46.976Z,8.17
2018-11-20T11:05:39.719Z,8.70
2018-11-20T11:08:25.506Z,7.60
2018-11-20T11:11:18.588Z,8.10
2018-11-20T11:14:01.441Z,7.80
2018-11-20T11:16:54.607Z,8.00
2018-11-20T11:19:39.203Z,8.37
2018-11-20T11:22:26.381Z,8.83
2018-11-20T11:25:31.912Z,9.10
2018-11-20T11:28:22.054Z,9.00
2018-11-20T11:31:04.974Z,9.63
2018-11-20T11:33:52.814Z,8.70
2018-11-20T11:36:52.193Z,8.43
2018-11-20T11:39:35.048Z,8.03
2018-11-20T11:42:20.729Z,7.93
2018-11-20T11:45:07.922Z,8.13
2018-11-20T11:48:04.254Z,7.77
2018-11-20T11:50:50.091Z,9.40
2018-11-20T11:53:49.286Z,7.90
2018-11-20T11:56:34.881Z,7.67
2018-11-20T11:59:20.731Z,8.13
2018-11-20T12:04:57.294Z,8.43
2018-11-20T12:07:47.293Z,8.93
2018-11-20T12:10:26.414Z,9.43
2018-11-20T12:13:21.542Z,8.63
2018-11-20T12:16:08.723Z,8.40
2018-11-20T12:18:56.115Z,9.47
2018-11-20T12:21:44.394Z,8.57
2018-11-20T12:24:31.588Z,8.47
2018-11-20T12:27:20.325Z,9.87
2018-11-20T12:30:24.099Z,9.17
2018-11-20T12:33:10.174Z,8.57
2018-11-20T12:35:56.591Z,8.67
2018-11-20T12:38:54.886Z,9.27
2018-11-20T12:41:46.316Z,10.13
2018-11-20T12:44:44.379Z,9.00
2018-11-20T12:47:42.941Z,8.23
2018-11-20T12:50:30.532Z,8.03
2018-11-20T12:53:16.459Z,8.90
2018-11-20T12:56:02.121Z,9.30
2018-11-20T12:58:54.001Z,8.80
2018-11-20T13:01:35.131Z,8.17
2018-11-20T13:04:40.192Z,8.30
2018-11-20T13:07:36.019Z,7.83
2018-11-20T13:10:32.132Z,7.33
2018-11-20T13:13:28.462Z,6.33
2018-11-20T13:16:04.735Z,8.17
2018-11-20T13:19:01.199Z,8.50
2018-11-20T13:21:47.109Z,8.30
2018-11-20T13:24:34.318Z,7.53
2018-11-20T13:27:20.386Z,8.87
2018-11-20T13:30:06.150Z,7.90
2018-11-20T13:32:59.106Z,8.93
2018-11-20T13:35:48.967Z,6.57
2018-11-20T13:38:35.270Z,7.00
2018-11-20T13:41:42.972Z,8.07
2018-11-20T13:44:42.583Z,6.03
2018-11-20T13:47:32.470Z,5.60
2018-11-20T13:50:18.175Z,6.30
2018-11-20T13:52:57.395Z,6.13
2018-11-20T13:55:34.768Z,5.77
2018-11-20T13:58:20.908Z,5.83
2018-11-20T14:01:08.435Z,6.43
2018-11-20T14:03:55.646Z,6.23
2018-11-20T14:06:41.741Z,6.20
2018-11-20T14:09:28.203Z,5.77
2018-11-20T14:12:18.541Z,6.03
2018-11-20T14:15:08.901Z,5.80
2018-11-20T14:17:54.873Z,6.33
2018-11-20T14:20:54.114Z,5.77
2018-11-20T14:23:39.795Z,5.50
2018-11-20T14:26:42.086Z,6.03
2018-11-20T14:29:44.299Z,5.83
2018-11-20T14:32:46.767Z,5.37
2018-11-20T14:35:32.788Z,5.63
2018-11-20T14:38:20.305Z,5.90
2018-11-20T14:41:07.607Z,4.83
2018-11-20T14:43:53.817Z,6.03
2018-11-20T14:46:47.065Z,5.30
2018-11-20T14:49:32.679Z,5.73
2018-11-20T14:52:22.531Z,5.90
2018-11-20T14:55:09.735Z,5.40
2018-11-20T14:57:55.370Z,5.40
2018-11-20T15:00:42.544Z,5.30
2018-11-20T15:03:28.472Z,5.77
2018-11-20T15:06:33.573Z,6.10
2018-11-20T15:09:19.479Z,5.90
2018-11-20T15:11:59.195Z,5.50
2018-11-20T15:15:04.477Z,5.37
2018-11-20T15:17:50.233Z,5.93
2018-11-20T15:20:36.301Z,5.80
2018-11-20T15:23:21.152Z,5.60
2018-11-20T15:26:09.717Z,5.17
2018-11-20T15:28:56.903Z,6.33
2018-11-20T15:31:36.671Z,4.83
2018-11-20T15:34:39.104Z,5.77
2018-11-20T15:37:26.299Z,5.60
2018-11-20T15:40:14.943Z,5.30
2018-11-20T15:42:55.762Z,5.80
2018-11-20T15:45:51.730Z,5.07
2018-11-20T15:48:38.970Z,5.30
2018-11-20T15:51:41.247Z,8.87
2018-11-20T15:54:20.079Z,10.33
2018-11-20T15:57:09.748Z,10.87
2018-11-20T16:00:12.202Z,10.33
2018-11-20T16:03:05.333Z,10.17
2018-11-20T16:05:56.320Z,10.80
2018-11-20T16:08:54.881Z,10.77
2018-11-20T16:11:47.956Z,12.03
2018-11-20T16:14:44.300Z,12.40
2018-11-20T16:17:46.670Z,12.20
2018-11-20T16:20:34.414Z,11.97
2018-11-20T16:23:30.611Z,11.70
2018-11-20T16:26:26.827Z,11.77
2018-11-20T16:29:28.986Z,12.07
2018-11-20T16:32:14.819Z,10.80
2018-11-20T16:35:04.784Z,11.43
2018-11-20T16:37:59.499Z,12.17
2018-11-20T16:40:45.478Z,12.67
2018-11-20T16:43:35.532Z,11.83
2018-11-20T16:46:23.233Z,11.10
2018-11-20T16:49:13.579Z,11.73
2018-11-20T16:52:10.199Z,11.83
2018-11-20T16:54:48.559Z,11.43
2018-11-20T16:57:28.207Z,11.93
2018-11-20T17:00:15.582Z,12.80
2018-11-20T17:03:11.567Z,12.77
2018-11-20T17:06:17.069Z,13.40
2018-11-20T17:09:16.246Z,11.83
2018-11-20T17:12:02.126Z,11.87
2018-11-20T17:14:43.898Z,12.77
2018-11-20T17:17:29.690Z,12.47
2018-11-20T17:20:15.397Z,12.60
2018-11-20T17:23:08.248Z,13.10
2018-11-20T17:26:08.080Z,11.67
2018-11-20T17:28:53.733Z,13.03
2018-11-20T17:31:43.671Z,13.37
2018-11-20T17:34:29.354Z,13.13
2018-11-20T17:37:15.121Z,13.27
2018-11-20T17:40:08.625Z,12.70
2018-11-20T17:43:01.532Z,12.67
2018-11-20T17:45:51.665Z,12.20
2018-11-20T17:48:45.858Z,12.57
2018-11-20T17:51:47.729Z,12.90
2018-11-20T17:54:40.868Z,12.37
2018-11-20T17:57:27.037Z,12.90
2018-11-20T18:00:09.205Z,13.20
2018-11-20T18:02:54.921Z,13.10
2018-11-20T18:05:44.868Z,12.40
2018-11-20T18:08:41.237Z,13.43
2018-11-20T18:11:26.820Z,11.90
2018-11-20T18:14:03.208Z,13.40
2018-11-20T18:16:49.157Z,13.53
2018-11-20T18:19:34.910Z,13.33
2018-11-20T18:22:27.411Z,13.57
2018-11-20T18:25:06.613Z,14.60
2018-11-20T18:27:53.150Z,15.40
2018-11-20T18:30:40.783Z,13.23
2018-11-20T18:33:40.016Z,12.97
2018-11-20T18:36:25.998Z,14.07
2018-11-20T18:39:13.162Z,13.00
2018-11-20T18:42:06.319Z,13.87
2018-11-20T18:45:02.222Z,13.80
2018-11-20T18:47:48.167Z,14.43
2018-11-20T18:50:33.875Z,14.93
2018-11-20T18:53:11.793Z,13.47
2018-11-20T18:56:05.041Z,14.43
2018-11-20T18:58:52.254Z,14.03
2018-11-20T19:01:43.286Z,12.33
2018-11-20T19:04:29.145Z,14.17
2018-11-20T19:07:10.819Z,13.47
2018-11-20T19:09:57.578Z,14.87
2018-11-20T19:12:50.821Z,14.73
2018-11-20T19:15:36.499Z,15.03
2018-11-20T19:18:32.719Z,14.70
2018-11-20T19:21:23.028Z,15.63
2018-11-20T19:24:28.505Z,16.33
2018-11-20T19:27:15.756Z,15.50
2018-11-20T19:30:14.932Z,14.73
2018-11-20T19:33:04.975Z,16.40
2018-11-20T19:36:07.115Z,14.80
2018-11-20T19:38:57.258Z,16.03
2018-11-20T19:41:50.508Z,15.03
2018-11-20T19:44:44.750Z,14.47
2018-11-20T19:47:34.917Z,18.27
2018-11-20T19:50:23.586Z,15.93
2018-11-20T19:53:06.211Z,17.57
2018-11-20T19:56:02.369Z,15.87
2018-11-20T19:58:48.333Z,14.60
2018-11-20T20:01:44.526Z,15.43
2018-11-20T20:04:41.050Z,15.33
2018-11-20T20:07:27.412Z,16.13
2018-11-20T20:10:20.565Z,15.93
2018-11-20T20:13:15.361Z,15.50
2018-11-20T20:16:08.295Z,15.40
2018-11-20T20:18:53.996Z,14.23
2018-11-20T20:21:53.229Z,17.23
2018-11-20T20:24:35.409Z,17.23
2018-11-20T20:27:22.604Z,16.13
2018-11-20T20:30:08.435Z,15.80
2018-11-20T20:33:10.553Z,16.23
2018-11-20T20:36:06.950Z,15.30
2018-11-20T20:39:02.898Z,16.27
2018-11-20T20:41:48.864Z,16.93
2018-11-20T20:44:37.442Z,16.73
2018-11-20T20:47:23.425Z,17.37
2018-11-20T20:50:09.238Z,17.03
2018-11-20T20:52:55.168Z,16.83
2018-11-20T20:55:48.443Z,15.90
2018-11-20T20:58:35.630Z,16.67
2018-11-20T21:01:22.185Z,16.63
2018-11-20T21:04:12.091Z,16.33
2018-11-20T21:07:08.511Z,16.87
2018-11-20T21:09:54.257Z,16.67
2018-11-20T21:13:33.544Z,17.37
2018-11-20T21:16:19.125Z,17.47
2018-11-20T21:19:08.494Z,16.87
2018-11-20T21:22:04.059Z,16.67
2018-11-20T21:24:42.308Z,17.80
2018-11-20T21:27:28.296Z,19.00
2018-11-20T21:30:17.693Z,16.73
2018-11-20T21:33:02.962Z,17.50
2018-11-20T21:36:07.950Z,17.40
2018-11-20T21:39:06.926Z,17.60
2018-11-20T21:41:59.546Z,16.30
2018-11-20T21:44:44.741Z,17.50
2018-11-20T21:47:30.037Z,17.43
2018-11-20T21:50:16.920Z,17.73
2018-11-20T21:53:21.699Z,17.87
2018-11-20T21:56:08.489Z,19.03
2018-11-20T21:58:58.336Z,17.40
2018-11-20T22:01:51.345Z,18.17
2018-11-20T22:04:36.617Z,17.93
2018-11-20T22:07:31.971Z,19.10
2018-11-20T22:10:33.839Z,19.33
2018-11-20T22:13:39.045Z,16.23
2018-11-20T22:16:31.809Z,18.40
2018-11-20T22:19:17.345Z,18.60
2018-11-20T22:22:19.567Z,17.60
2018-11-20T22:25:06.348Z,17.67
2018-11-20T22:28:02.259Z,17.23
2018-11-20T22:30:51.625Z,18.03
2018-11-20T22:33:28.752Z,17.03
2018-11-20T22:36:30.383Z,19.17
2018-11-20T22:39:20.151Z,17.83
2018-11-20T22:42:09.526Z,17.90
2018-11-20T22:45:06.904Z,17.23
2018-11-20T22:47:53.690Z,18.47
2018-11-20T22:50:43.061Z,18.10
2018-11-20T22:53:27.168Z,18.80
2018-11-20T22:56:16.532Z,17.63
2018-11-20T22:59:12.141Z,16.27
2018-11-20T23:02:16.805Z,17.20
2018-11-20T23:05:02.914Z,17.50
2018-11-20T23:08:01.846Z,18.83
2018-11-20T23:10:30.179Z,18.53
2018-11-20T23:12:57.885Z,17.57
2018-11-20T23:15:25.578Z,18.20
2018-11-20T23:17:53.279Z,18.67
2018-11-20T23:20:20.957Z,19.60
2018-11-20T23:22:48.652Z,19.23
2018-11-20T23:25:16.633Z,20.07
2018-11-20T23:27:44.379Z,20.37
2018-11-20T23:30:13.714Z,18.83
2018-11-20T23:32:41.961Z,20.27
2018-11-20T23:35:10.780Z,20.60
2018-11-20T23:37:39.422Z,20.77
2018-11-20T23:40:07.672Z,19.43
2018-11-20T23:42:35.702Z,18.90
2018-11-20T23:45:03.393Z,19.87
2018-11-20T23:47:31.165Z,20.10
2018-11-20T23:49:58.847Z,19.73
2018-11-20T23:52:26.533Z,20.63
2018-11-20T23:54:54.202Z,20.00
2018-11-20T23:57:21.899Z,20.70
2018-11-20T23:59:49.591Z,20.70
